createdAt,value
2019-04-26T00:02:46.068Z,75.40
2019-04-26T00:05:14.452Z,76.29
2019-04-26T00:07:42.386Z,76.61
2019-04-26T00:10:24.269Z,77.12
2019-04-26T00:12:59.209Z,76.30
2019-04-26T00:15:52.390Z,74.51
2019-04-26T00:18:20.903Z,74.61
2019-04-26T00:20:48.682Z,74.76
2019-04-26T00:23:16.186Z,74.89
2019-04-26T00:25:43.911Z,75.88
2019-04-26T00:28:11.759Z,76.95
2019-04-26T00:30:40.144Z,76.63
2019-04-26T00:33:07.588Z,77.32
2019-04-26T00:35:46.908Z,77.65
2019-04-26T00:38:04.378Z,76.53
2019-04-26T00:40:32.172Z,77.00
2019-04-26T00:43:01.838Z,78.34
2019-04-26T00:45:32.562Z,79.27
2019-04-26T00:48:00.758Z,78.69
2019-04-26T00:50:30.057Z,80.21
2019-04-26T00:52:59.024Z,81.08
2019-04-26T00:55:27.389Z,81.22
2019-04-26T00:57:55.689Z,81.46
2019-04-26T01:00:23.895Z,81.16
2019-04-26T01:02:54.407Z,81.38
2019-04-26T01:05:23.109Z,81.93
2019-04-26T01:07:53.327Z,82.34
2019-04-26T01:10:21.641Z,82.91
2019-04-26T01:12:49.401Z,81.48
2019-04-26T01:15:18.789Z,81.02
2019-04-26T01:17:46.185Z,81.09
2019-04-26T01:20:14.296Z,80.47
2019-04-26T01:22:46.731Z,80.15
2019-04-26T01:25:42.173Z,80.33
2019-04-26T01:28:15.235Z,80.93
2019-04-26T01:30:43.908Z,81.87
2019-04-26T01:33:11.952Z,82.43
2019-04-26T01:35:39.688Z,82.79
2019-04-26T01:38:11.216Z,83.08
2019-04-26T01:40:39.407Z,83.40
2019-04-26T01:43:26.421Z,82.71
2019-04-26T01:46:01.701Z,84.22
2019-04-26T01:48:47.633Z,84.25
2019-04-26T01:51:28.772Z,83.89
2019-04-26T01:53:56.466Z,83.85
2019-04-26T01:56:29.724Z,84.69
2019-04-26T01:58:57.304Z,84.24
2019-04-26T02:01:50.335Z,85.48
2019-04-26T02:04:18.180Z,84.57
2019-04-26T02:06:45.622Z,83.66
2019-04-26T02:09:13.212Z,81.67
2019-04-26T02:11:41.082Z,80.24
2019-04-26T02:14:09.144Z,79.80
2019-04-26T02:16:37.257Z,79.65
2019-04-26T02:19:05.051Z,80.08
2019-04-26T02:21:55.215Z,79.85
2019-04-26T02:24:32.178Z,79.94
2019-04-26T02:27:01.635Z,79.54
2019-04-26T02:29:29.221Z,79.76
2019-04-26T02:32:03.118Z,80.07
2019-04-26T02:34:36.016Z,81.09
2019-04-26T02:37:06.097Z,82.29
2019-04-26T02:39:37.876Z,82.54
2019-04-26T02:42:11.309Z,82.57
2019-04-26T02:44:52.189Z,80.28
2019-04-26T02:47:53.055Z,79.73
2019-04-26T02:50:36.297Z,77.62
2019-04-26T02:53:21.268Z,77.21
2019-04-26T02:56:30.338Z,76.53
2019-04-26T02:59:34.127Z,76.29
2019-04-26T03:02:04.045Z,76.07
2019-04-26T03:04:34.168Z,75.00
2019-04-26T03:07:10.426Z,75.74
2019-04-26T03:09:43.188Z,76.42
2019-04-26T03:12:14.579Z,76.06
2019-04-26T03:15:12.763Z,75.99
2019-04-26T03:17:43.041Z,75.61
2019-04-26T03:20:14.753Z,75.59
2019-04-26T03:22:52.401Z,75.96
2019-04-26T03:25:40.689Z,78.24
2019-04-26T03:28:57.281Z,79.40
2019-04-26T03:31:54.530Z,81.80
2019-04-26T03:34:54.489Z,83.84
2019-04-26T03:37:53.724Z,84.78
2019-04-26T03:40:44.496Z,85.50
2019-04-26T03:43:34.367Z,86.04
2019-04-26T03:46:20.981Z,85.86
2019-04-26T03:49:13.307Z,85.04
2019-04-26T03:52:18.297Z,83.43
2019-04-26T03:54:50.086Z,81.74
2019-04-26T03:57:32.196Z,82.38
2019-04-26T04:00:41.482Z,82.87
2019-04-26T04:03:29.959Z,82.75
2019-04-26T04:06:01.371Z,82.91
2019-04-26T04:08:46.677Z,82.08
2019-04-26T04:11:18.903Z,82.70
2019-04-26T04:13:57.456Z,83.17
2019-04-26T04:16:38.560Z,84.23
2019-04-26T04:19:53.460Z,84.73
2019-04-26T04:22:24.501Z,85.58
2019-04-26T04:24:56.005Z,83.85
2019-04-26T04:27:38.255Z,83.69
2019-04-26T04:30:30.615Z,83.59
2019-04-26T04:33:35.891Z,83.48
2019-04-26T04:36:12.300Z,83.23
2019-04-26T04:39:12.325Z,82.54
2019-04-26T04:42:03.965Z,80.60
2019-04-26T04:45:11.492Z,79.83
2019-04-26T04:47:54.257Z,81.22
2019-04-26T04:50:35.406Z,80.80
2019-04-26T04:53:41.227Z,77.92
2019-04-26T04:56:57.533Z,77.49
2019-04-26T04:59:34.272Z,75.50
2019-04-26T05:02:40.895Z,74.48
2019-04-26T05:06:08.923Z,75.51
2019-04-26T05:08:58.686Z,73.61
2019-04-26T05:12:01.186Z,73.17
2019-04-26T05:15:08.386Z,72.75
2019-04-26T05:18:11.318Z,72.54
2019-04-26T05:21:04.890Z,70.66
2019-04-26T05:24:14.308Z,69.53
2019-04-26T05:27:38.850Z,68.37
2019-04-26T05:30:37.929Z,66.20
2019-04-26T05:33:16.646Z,67.01
2019-04-26T05:36:16.418Z,66.03
2019-04-26T05:39:07.267Z,66.49
2019-04-26T05:42:55.975Z,65.02
2019-04-26T05:46:50.619Z,63.44
2019-04-26T05:50:12.466Z,61.97
2019-04-26T05:53:27.397Z,60.65
2019-04-26T05:56:33.381Z,60.78
2019-04-26T05:59:25.536Z,61.80
2019-04-26T06:02:30.478Z,62.69
2019-04-26T06:05:34.336Z,63.33
2019-04-26T06:08:39.391Z,64.66
2019-04-26T06:11:18.198Z,64.56
2019-04-26T06:14:14.172Z,64.24
2019-04-26T06:17:45.252Z,63.80
2019-04-26T06:20:36.716Z,63.41
2019-04-26T06:23:18.347Z,62.96
2019-04-26T06:26:01.411Z,61.63
2019-04-26T06:28:56.869Z,61.65
2019-04-26T06:31:30.383Z,62.25
2019-04-26T06:34:51.748Z,59.59
2019-04-26T06:37:31.785Z,57.69
2019-04-26T06:40:14.763Z,56.84
2019-04-26T06:43:12.734Z,57.26
2019-04-26T06:46:50.438Z,55.93
2019-04-26T06:49:50.698Z,53.20
2019-04-26T06:52:22.190Z,53.05
2019-04-26T06:55:02.702Z,53.10
2019-04-26T06:58:05.011Z,52.64
2019-04-26T07:00:57.432Z,52.09
2019-04-26T07:03:46.291Z,50.73
2019-04-26T07:06:17.432Z,52.76
2019-04-26T07:09:09.244Z,50.72
2019-04-26T07:12:29.380Z,49.85
2019-04-26T07:15:28.416Z,50.28
2019-04-26T07:18:45.696Z,50.00
2019-04-26T07:21:39.716Z,50.99
2019-04-26T07:24:55.011Z,50.01
2019-04-26T07:28:12.261Z,50.39
2019-04-26T07:31:01.365Z,51.15
2019-04-26T07:34:31.808Z,50.75
2019-04-26T07:37:50.715Z,50.28
2019-04-26T07:40:54.838Z,51.19
2019-04-26T07:44:24.191Z,52.18
2019-04-26T07:47:12.608Z,51.04
2019-04-26T07:50:24.351Z,49.51
2019-04-26T07:53:35.397Z,49.54
2019-04-26T07:56:21.278Z,50.78
2019-04-26T07:59:24.531Z,49.18
2019-04-26T08:02:29.080Z,47.58
2019-04-26T08:05:07.817Z,45.17
2019-04-26T08:07:42.193Z,45.93
2019-04-26T08:10:16.319Z,44.61
2019-04-26T08:12:50.959Z,44.50
2019-04-26T08:15:39.947Z,44.30
2019-04-26T08:18:32.750Z,43.13
2019-04-26T08:21:15.240Z,42.29
2019-04-26T08:24:07.842Z,42.90
2019-04-26T08:26:39.578Z,41.96
2019-04-26T08:29:10.546Z,40.73
2019-04-26T08:31:41.680Z,40.72
2019-04-26T08:34:14.728Z,40.49
2019-04-26T08:36:52.009Z,41.26
2019-04-26T08:39:32.352Z,41.56
2019-04-26T08:41:58.086Z,41.71
2019-04-26T08:44:39.620Z,42.06
2019-04-26T08:47:29.921Z,42.18
2019-04-26T08:50:15.203Z,42.21
2019-04-26T08:52:45.253Z,42.63
2019-04-26T08:55:16.344Z,42.55
2019-04-26T08:57:47.434Z,43.37
2019-04-26T09:00:27.918Z,42.62
2019-04-26T09:03:12.135Z,42.42
2019-04-26T09:06:00.014Z,41.77
2019-04-26T09:08:33.614Z,40.92
2019-04-26T09:11:03.957Z,39.91
2019-04-26T09:13:36.001Z,39.86
2019-04-26T09:16:16.021Z,39.70
2019-04-26T09:18:48.137Z,39.36
2019-04-26T09:21:17.092Z,38.55
2019-04-26T09:24:11.271Z,39.43
2019-04-26T09:26:48.500Z,38.47
2019-04-26T09:29:30.534Z,39.18
2019-04-26T09:32:03.996Z,38.37
2019-04-26T09:34:31.770Z,38.62
2019-04-26T09:36:59.234Z,38.13
2019-04-26T09:39:26.917Z,38.71
2019-04-26T09:41:56.936Z,38.38
2019-04-26T09:44:42.990Z,36.83
2019-04-26T09:47:28.456Z,35.33
2019-04-26T09:50:04.656Z,35.33
2019-04-26T09:52:39.031Z,34.95
2019-04-26T09:55:06.966Z,34.95
2019-04-26T09:57:34.565Z,35.41
2019-04-26T10:00:02.244Z,34.42
2019-04-26T10:02:33.821Z,34.37
2019-04-26T10:04:59.179Z,34.55
2019-04-26T10:07:26.721Z,34.03
2019-04-26T10:09:56.396Z,35.05
2019-04-26T10:12:40.624Z,35.13
2019-04-26T10:15:30.332Z,34.26
2019-04-26T10:17:58.215Z,34.77
2019-04-26T10:20:25.784Z,33.61
2019-04-26T10:22:53.283Z,33.67
2019-04-26T10:25:20.849Z,32.63
2019-04-26T10:27:48.231Z,32.23
2019-04-26T10:30:17.312Z,32.49
2019-04-26T10:32:45.086Z,32.16
2019-04-26T10:35:12.680Z,32.12
2019-04-26T10:37:43.886Z,31.24
2019-04-26T10:40:10.390Z,30.62
2019-04-26T10:42:37.874Z,30.08
2019-04-26T10:45:10.379Z,30.17
2019-04-26T10:47:38.477Z,30.45
2019-04-26T10:50:08.896Z,30.28
2019-04-26T10:52:55.852Z,30.88
2019-04-26T10:55:46.442Z,29.29
2019-04-26T10:58:23.976Z,28.54
2019-04-26T11:00:55.321Z,28.94
2019-04-26T11:03:23.033Z,29.22
2019-04-26T11:05:53.800Z,27.19
2019-04-26T11:08:20.329Z,26.80
2019-04-26T11:10:49.077Z,26.84
2019-04-26T11:13:16.958Z,25.73
2019-04-26T11:15:45.623Z,26.03
2019-04-26T11:18:13.234Z,26.07
2019-04-26T11:20:41.487Z,26.72
2019-04-26T11:23:12.813Z,26.23
2019-04-26T11:25:40.508Z,26.35
2019-04-26T11:28:08.254Z,26.67
2019-04-26T11:30:35.863Z,26.10
2019-04-26T11:33:03.563Z,26.60
2019-04-26T11:35:33.159Z,25.89
2019-04-26T11:38:00.559Z,24.63
2019-04-26T11:40:28.104Z,23.37
2019-04-26T11:42:55.711Z,24.49
2019-04-26T11:45:23.306Z,25.26
2019-04-26T11:47:56.145Z,25.96
2019-04-26T11:50:20.673Z,26.22
2019-04-26T11:52:48.317Z,25.82
2019-04-26T11:55:15.882Z,25.44
2019-04-26T11:57:43.694Z,25.28
2019-04-26T12:00:21.825Z,25.53
2019-04-26T12:02:50.782Z,25.24
2019-04-26T12:05:50.110Z,23.89
2019-04-26T12:08:23.066Z,24.90
2019-04-26T12:10:50.994Z,29.36
2019-04-26T12:13:21.367Z,31.39
2019-04-26T12:15:48.869Z,31.71
2019-04-26T12:18:16.421Z,31.15
2019-04-26T12:20:44.091Z,30.47
2019-04-26T12:23:13.644Z,30.47
2019-04-26T12:25:43.613Z,31.86
2019-04-26T12:28:10.786Z,32.22
2019-04-26T12:30:38.322Z,32.76
2019-04-26T12:33:05.983Z,32.64
2019-04-26T12:35:33.537Z,32.33
2019-04-26T12:38:01.156Z,32.44
2019-04-26T12:40:29.025Z,32.44
2019-04-26T12:42:56.475Z,31.66
2019-04-26T12:45:36.065Z,30.80
2019-04-26T12:48:07.989Z,31.14
2019-04-26T12:50:37.733Z,30.55
2019-04-26T12:53:05.212Z,30.57
2019-04-26T12:55:32.705Z,30.27
2019-04-26T12:58:00.234Z,29.69
2019-04-26T13:00:33.171Z,30.13
2019-04-26T13:03:00.890Z,30.46
2019-04-26T13:05:28.755Z,29.42
2019-04-26T13:07:56.174Z,29.64
2019-04-26T13:10:48.980Z,30.28
2019-04-26T13:13:21.256Z,29.84
2019-04-26T13:16:17.537Z,29.21
2019-04-26T13:18:46.992Z,28.92
2019-04-26T13:21:14.807Z,27.70
2019-04-26T13:23:42.437Z,28.26
2019-04-26T13:26:09.969Z,27.55
2019-04-26T13:28:37.468Z,27.41
2019-04-26T13:31:04.946Z,27.02
2019-04-26T13:33:33.647Z,27.02
2019-04-26T13:36:02.951Z,26.70
2019-04-26T13:38:30.825Z,26.91
2019-04-26T13:40:59.534Z,26.09
2019-04-26T13:43:28.727Z,26.09
2019-04-26T13:46:18.965Z,25.83
2019-04-26T13:49:14.185Z,26.23
2019-04-26T13:51:41.265Z,26.46
2019-04-26T13:54:08.963Z,26.41
2019-04-26T13:56:37.599Z,26.03
2019-04-26T13:59:05.479Z,26.79
2019-04-26T14:01:32.923Z,26.41
2019-04-26T14:04:02.380Z,26.43
2019-04-26T14:06:30.127Z,26.15
2019-04-26T14:09:00.766Z,27.16
2019-04-26T14:11:29.391Z,26.00
2019-04-26T14:14:00.000Z,26.58
2019-04-26T14:16:27.497Z,26.52
2019-04-26T14:18:55.569Z,26.75
2019-04-26T14:21:23.209Z,26.44
2019-04-26T14:24:28.206Z,26.89
2019-04-26T14:26:58.764Z,26.37
2019-04-26T14:29:28.395Z,26.15
2019-04-26T14:31:55.743Z,26.29
2019-04-26T14:34:23.230Z,26.19
2019-04-26T14:36:50.800Z,26.00
2019-04-26T14:39:21.078Z,26.00
2019-04-26T14:41:47.954Z,26.34
2019-04-26T14:44:16.154Z,26.14
2019-04-26T14:46:48.937Z,26.72
2019-04-26T14:49:13.214Z,26.58
2019-04-26T14:51:40.815Z,26.80
2019-04-26T14:54:11.529Z,26.67
2019-04-26T14:56:37.635Z,26.26
2019-04-26T14:59:08.129Z,26.00
2019-04-26T15:02:02.441Z,26.55
2019-04-26T15:04:58.112Z,26.36
2019-04-26T15:07:28.248Z,26.22
2019-04-26T15:09:54.174Z,26.59
2019-04-26T15:12:22.390Z,26.36
2019-04-26T15:14:53.806Z,26.41
2019-04-26T15:17:24.271Z,26.32
2019-04-26T15:19:49.306Z,26.54
2019-04-26T15:22:16.977Z,26.48
2019-04-26T15:24:44.468Z,26.56
2019-04-26T15:27:11.907Z,26.82
2019-04-26T15:29:39.451Z,26.94
2019-04-26T15:32:07.223Z,26.93
2019-04-26T15:34:34.624Z,26.51
2019-04-26T15:37:02.999Z,26.09
2019-04-26T15:39:55.153Z,26.79
2019-04-26T15:42:38.650Z,26.24
2019-04-26T15:45:28.452Z,27.19
2019-04-26T15:48:16.206Z,28.45
2019-04-26T15:50:50.541Z,28.62
2019-04-26T15:53:14.882Z,29.58
2019-04-26T15:55:43.549Z,30.20
2019-04-26T15:58:11.303Z,30.98
2019-04-26T16:00:39.006Z,31.56
2019-04-26T16:03:07.507Z,31.74
2019-04-26T16:05:35.207Z,31.70
2019-04-26T16:08:04.559Z,32.44
2019-04-26T16:10:37.074Z,32.55
2019-04-26T16:13:16.246Z,32.54
2019-04-26T16:15:32.227Z,32.62
2019-04-26T16:17:59.835Z,33.43
2019-04-26T16:20:27.409Z,33.44
2019-04-26T16:22:54.898Z,34.02
2019-04-26T16:25:22.984Z,34.16
2019-04-26T16:28:10.067Z,34.25
2019-04-26T16:30:45.465Z,34.33
2019-04-26T16:33:17.744Z,34.50
2019-04-26T16:35:46.346Z,34.79
2019-04-26T16:38:33.079Z,34.84
2019-04-26T16:41:03.145Z,35.19
2019-04-26T16:43:37.633Z,34.88
2019-04-26T16:45:59.950Z,35.44
2019-04-26T16:48:27.652Z,35.23
2019-04-26T16:50:55.156Z,35.41
2019-04-26T16:53:42.865Z,35.64
2019-04-26T16:55:53.299Z,35.70
2019-04-26T16:58:20.999Z,36.68
2019-04-26T17:00:54.681Z,37.92
2019-04-26T17:03:17.777Z,38.57
2019-04-26T17:05:48.314Z,39.08
2019-04-26T17:08:18.974Z,39.18
2019-04-26T17:10:44.132Z,39.36
2019-04-26T17:13:13.249Z,39.12
2019-04-26T17:15:40.913Z,39.19
2019-04-26T17:18:08.471Z,39.37
2019-04-26T17:20:36.149Z,38.89
2019-04-26T17:23:33.416Z,38.32
2019-04-26T17:26:19.310Z,38.60
2019-04-26T17:28:46.987Z,40.33
2019-04-26T17:31:14.911Z,41.52
2019-04-26T17:33:42.382Z,41.90
2019-04-26T17:36:11.443Z,42.45
2019-04-26T17:38:41.913Z,42.96
2019-04-26T17:41:10.903Z,43.31
2019-04-26T17:43:40.767Z,43.58
2019-04-26T17:46:07.534Z,43.91
2019-04-26T17:48:35.035Z,44.05
2019-04-26T17:51:02.537Z,44.70
2019-04-26T17:53:33.198Z,44.91
2019-04-26T17:56:00.498Z,44.78
2019-04-26T17:58:33.621Z,45.51
2019-04-26T18:01:01.069Z,45.70
2019-04-26T18:03:27.702Z,45.89
2019-04-26T18:05:57.125Z,46.03
2019-04-26T18:08:36.090Z,46.02
2019-04-26T18:10:54.035Z,45.67
2019-04-26T18:13:21.582Z,45.93
2019-04-26T18:15:52.867Z,45.51
2019-04-26T18:18:53.954Z,45.64
2019-04-26T18:21:33.720Z,44.92
2019-04-26T18:24:02.847Z,45.20
2019-04-26T18:26:30.500Z,45.44
2019-04-26T18:28:57.946Z,45.77
2019-04-26T18:31:28.590Z,46.22
2019-04-26T18:34:00.627Z,46.06
2019-04-26T18:36:27.680Z,46.05
2019-04-26T18:38:54.533Z,46.36
2019-04-26T18:41:28.259Z,46.45
2019-04-26T18:43:54.030Z,47.03
2019-04-26T18:46:27.783Z,47.15
2019-04-26T18:48:55.324Z,47.16
2019-04-26T18:51:23.597Z,46.40
2019-04-26T18:54:14.499Z,46.46
2019-04-26T18:56:41.788Z,46.19
2019-04-26T18:59:11.710Z,46.78
2019-04-26T19:01:41.790Z,47.16
2019-04-26T19:04:12.688Z,47.71
2019-04-26T19:06:38.045Z,47.29
2019-04-26T19:09:07.665Z,47.51
2019-04-26T19:11:35.691Z,47.46
2019-04-26T19:14:26.409Z,47.41
2019-04-26T19:17:08.831Z,47.40
2019-04-26T19:19:58.581Z,47.40
2019-04-26T19:22:26.054Z,48.12
2019-04-26T19:24:56.449Z,48.30
2019-04-26T19:27:26.468Z,48.70
2019-04-26T19:29:52.219Z,47.90
2019-04-26T19:32:21.348Z,48.00
2019-04-26T19:34:49.098Z,47.94
2019-04-26T19:37:16.569Z,48.03
2019-04-26T19:39:44.093Z,48.55
2019-04-26T19:42:11.846Z,49.09
2019-04-26T19:44:39.440Z,49.55
2019-04-26T19:47:39.483Z,50.27
2019-04-26T19:50:18.220Z,50.24
2019-04-26T19:53:16.617Z,50.71
2019-04-26T19:55:56.357Z,51.25
2019-04-26T19:58:26.553Z,51.91
2019-04-26T20:00:54.052Z,52.26
2019-04-26T20:03:21.488Z,52.12
2019-04-26T20:05:49.055Z,52.67
2019-04-26T20:08:16.566Z,52.72
2019-04-26T20:10:45.927Z,52.60
2019-04-26T20:13:16.254Z,53.24
2019-04-26T20:15:43.574Z,53.48
2019-04-26T20:18:12.218Z,54.39
2019-04-26T20:20:41.440Z,54.78
2019-04-26T20:23:09.119Z,54.74
2019-04-26T20:25:37.659Z,55.14
2019-04-26T20:28:05.460Z,55.52
2019-04-26T20:31:05.834Z,55.64
2019-04-26T20:33:31.458Z,55.49
2019-04-26T20:36:01.452Z,55.69
2019-04-26T20:38:26.880Z,56.13
2019-04-26T20:40:54.367Z,55.55
2019-04-26T20:43:26.362Z,55.55
2019-04-26T20:46:10.606Z,56.13
2019-04-26T20:48:21.574Z,56.83
2019-04-26T20:50:49.360Z,56.52
2019-04-26T20:53:16.876Z,56.31
2019-04-26T20:55:47.020Z,56.39
2019-04-26T20:58:13.789Z,56.09
2019-04-26T21:00:53.729Z,55.77
2019-04-26T21:03:23.181Z,55.91
2019-04-26T21:05:46.241Z,55.62
2019-04-26T21:08:09.661Z,56.04
2019-04-26T21:10:37.214Z,56.10
2019-04-26T21:13:04.994Z,55.71
2019-04-26T21:15:35.747Z,55.02
2019-04-26T21:18:04.112Z,55.03
2019-04-26T21:20:34.509Z,54.94
2019-04-26T21:23:02.403Z,55.19
2019-04-26T21:25:56.154Z,55.24
2019-04-26T21:28:42.533Z,55.78
2019-04-26T21:31:32.702Z,56.29
2019-04-26T21:34:12.457Z,56.85
2019-04-26T21:36:46.700Z,57.01
2019-04-26T21:39:39.462Z,57.18
2019-04-26T21:42:07.150Z,56.69
2019-04-26T21:44:35.524Z,56.89
2019-04-26T21:47:03.412Z,57.29
2019-04-26T21:49:32.728Z,57.80
2019-04-26T21:52:00.480Z,57.85
2019-04-26T21:54:28.143Z,57.80
2019-04-26T21:56:55.545Z,57.62
2019-04-26T21:59:24.417Z,56.64
2019-04-26T22:01:58.808Z,56.31
2019-04-26T22:04:22.729Z,56.89
2019-04-26T22:06:53.457Z,56.75
2019-04-26T22:09:36.826Z,57.43
2019-04-26T22:12:06.552Z,57.83
2019-04-26T22:14:35.907Z,58.35
2019-04-26T22:17:24.274Z,58.25
2019-04-26T22:20:06.623Z,58.83
2019-04-26T22:22:56.613Z,59.61
2019-04-26T22:25:25.636Z,59.95
2019-04-26T22:27:57.360Z,59.70
2019-04-26T22:30:28.317Z,60.18
2019-04-26T22:32:58.399Z,60.52
2019-04-26T22:35:25.700Z,61.05
2019-04-26T22:37:53.761Z,61.41
2019-04-26T22:40:23.246Z,61.77
2019-04-26T22:42:55.044Z,62.02
2019-04-26T22:45:30.488Z,62.05
2019-04-26T22:48:11.575Z,61.73
2019-04-26T22:50:38.993Z,62.24
2019-04-26T22:53:06.475Z,62.02
2019-04-26T22:55:34.303Z,61.89
2019-04-26T22:58:03.251Z,61.33
2019-04-26T23:00:37.887Z,61.51
2019-04-26T23:03:07.260Z,61.68
2019-04-26T23:05:38.947Z,62.18
2019-04-26T23:08:04.415Z,62.04
2019-04-26T23:10:39.071Z,62.16
2019-04-26T23:13:13.248Z,62.75
2019-04-26T23:16:18.734Z,62.56
2019-04-26T23:19:25.114Z,62.57
2019-04-26T23:21:55.910Z,62.94
2019-04-26T23:24:23.767Z,63.24
2019-04-26T23:26:51.320Z,63.37
2019-04-26T23:29:19.062Z,63.30
2019-04-26T23:31:46.877Z,62.98
2019-04-26T23:34:14.432Z,63.53
2019-04-26T23:36:43.593Z,63.70
2019-04-26T23:39:13.363Z,63.82
2019-04-26T23:41:41.554Z,64.05
2019-04-26T23:44:10.081Z,64.43
2019-04-26T23:46:37.568Z,64.89
2019-04-26T23:49:04.976Z,66.21
2019-04-26T23:51:33.943Z,67.09
2019-04-26T23:54:03.215Z,67.78
2019-04-26T23:56:30.883Z,67.58
2019-04-26T23:58:58.395Z,67.70
